createdAt,value
2022-11-21T00:01:01.055Z,86.57
2022-11-21T00:03:28.794Z,86.17
2022-11-21T00:05:56.270Z,86.84
2022-11-21T00:08:24.876Z,87.35
2022-11-21T00:10:52.310Z,87.55
2022-11-21T00:13:21.819Z,88.07
2022-11-21T00:15:49.290Z,86.97
2022-11-21T00:18:17.070Z,87.12
2022-11-21T00:20:45.143Z,87.32
2022-11-21T00:23:12.620Z,87.02
2022-11-21T00:25:40.335Z,87.10
2022-11-21T00:28:07.787Z,86.70
2022-11-21T00:30:36.759Z,86.44
2022-11-21T00:33:04.404Z,86.73
2022-11-21T00:35:33.650Z,86.43
2022-11-21T00:38:01.095Z,85.94
2022-11-21T00:40:28.548Z,86.21
2022-11-21T00:42:56.015Z,85.80
2022-11-21T00:45:24.592Z,86.10
2022-11-21T00:47:53.588Z,85.75
2022-11-21T00:50:21.106Z,85.68
2022-11-21T00:52:48.647Z,86.20
2022-11-21T00:55:16.224Z,85.67
2022-11-21T00:57:43.658Z,86.10
2022-11-21T01:00:12.177Z,85.95
2022-11-21T01:02:39.618Z,85.72
2022-11-21T01:05:09.393Z,85.97
2022-11-21T01:07:37.598Z,85.91
2022-11-21T01:10:06.200Z,85.87
2022-11-21T01:12:33.708Z,86.18
2022-11-21T01:15:01.150Z,86.44
2022-11-21T01:17:28.597Z,86.76
2022-11-21T01:19:56.215Z,86.29
2022-11-21T01:22:25.002Z,86.75
2022-11-21T01:24:52.582Z,86.37
2022-11-21T01:27:20.034Z,86.31
2022-11-21T01:29:47.458Z,86.26
2022-11-21T01:32:15.019Z,86.44
2022-11-21T01:34:42.471Z,86.41
2022-11-21T01:37:09.927Z,86.33
2022-11-21T01:39:38.726Z,85.86
2022-11-21T01:42:06.272Z,85.92
2022-11-21T01:44:50.946Z,85.92
2022-11-21T01:47:18.635Z,86.50
2022-11-21T01:49:47.175Z,86.18
2022-11-21T01:52:18.314Z,86.15
2022-11-21T01:54:50.138Z,86.02
2022-11-21T01:57:20.452Z,86.91
2022-11-21T01:59:50.705Z,86.77
2022-11-21T02:02:19.420Z,86.47
2022-11-21T02:04:46.923Z,86.21
2022-11-21T02:07:15.978Z,86.16
2022-11-21T02:09:45.762Z,86.76
2022-11-21T02:12:17.570Z,86.43
2022-11-21T02:14:45.249Z,86.36
2022-11-21T02:17:12.711Z,86.32
2022-11-21T02:19:45.057Z,86.30
2022-11-21T02:22:16.647Z,86.10
2022-11-21T02:24:46.794Z,86.13
2022-11-21T02:27:15.762Z,86.43
2022-11-21T02:29:44.273Z,86.51
2022-11-21T02:32:22.022Z,86.81
2022-11-21T02:34:49.449Z,86.55
2022-11-21T02:37:17.865Z,86.30
2022-11-21T02:39:46.506Z,86.68
2022-11-21T02:42:18.340Z,86.19
2022-11-21T02:44:50.779Z,86.40
2022-11-21T02:47:18.232Z,86.39
2022-11-21T02:49:49.346Z,86.24
2022-11-21T02:52:16.982Z,86.03
2022-11-21T02:54:44.631Z,86.37
2022-11-21T02:57:12.079Z,86.09
2022-11-21T02:59:40.890Z,86.13
2022-11-21T03:02:08.322Z,86.25
2022-11-21T03:04:35.782Z,86.56
2022-11-21T03:07:03.358Z,86.60
2022-11-21T03:09:30.850Z,86.72
2022-11-21T03:11:58.290Z,86.81
2022-11-21T03:14:26.201Z,86.50
2022-11-21T03:16:55.184Z,86.26
2022-11-21T03:19:22.625Z,86.52
2022-11-21T03:21:50.039Z,86.47
2022-11-21T03:24:17.491Z,86.23
2022-11-21T03:26:44.902Z,86.51
2022-11-21T03:29:12.415Z,86.46
2022-11-21T03:31:39.873Z,86.30
2022-11-21T03:34:08.831Z,86.53
2022-11-21T03:36:36.279Z,86.25
2022-11-21T03:39:03.986Z,85.79
2022-11-21T03:41:31.461Z,85.98
2022-11-21T03:43:59.704Z,86.24
2022-11-21T03:46:27.662Z,86.10
2022-11-21T03:48:55.098Z,85.63
2022-11-21T03:51:24.038Z,85.80
2022-11-21T03:53:51.907Z,86.12
2022-11-21T03:56:19.392Z,85.87
2022-11-21T03:58:47.411Z,85.74
2022-11-21T04:01:15.044Z,86.04
2022-11-21T04:03:42.733Z,85.88
2022-11-21T04:06:10.935Z,86.48
2022-11-21T04:08:39.757Z,86.15
2022-11-21T04:11:07.306Z,86.09
2022-11-21T04:13:34.994Z,86.00
2022-11-21T04:16:02.986Z,86.24
2022-11-21T04:18:30.626Z,85.97
2022-11-21T04:20:58.815Z,86.21
2022-11-21T04:23:26.678Z,86.36
2022-11-21T04:25:55.594Z,86.05
2022-11-21T04:28:23.342Z,86.30
2022-11-21T04:30:54.474Z,85.57
2022-11-21T04:33:22.388Z,86.43
2022-11-21T04:35:49.867Z,86.55
2022-11-21T04:38:17.331Z,86.60
2022-11-21T04:40:45.343Z,86.28
2022-11-21T04:43:14.104Z,86.45
2022-11-21T04:45:41.607Z,86.15
2022-11-21T04:48:09.054Z,86.27
2022-11-21T04:50:36.742Z,86.14
2022-11-21T04:53:04.469Z,86.69
2022-11-21T04:55:33.200Z,86.76
2022-11-21T04:58:01.130Z,86.83
2022-11-21T05:00:30.075Z,86.81
2022-11-21T05:03:03.068Z,87.33
2022-11-21T05:05:30.650Z,86.75
2022-11-21T05:07:58.311Z,86.58
2022-11-21T05:10:26.025Z,87.25
2022-11-21T05:13:17.597Z,87.58
2022-11-21T05:15:47.483Z,87.21
2022-11-21T05:18:14.931Z,86.93
2022-11-21T05:20:42.378Z,87.70
2022-11-21T05:23:09.875Z,87.79
2022-11-21T05:25:37.319Z,87.38
2022-11-21T05:28:04.895Z,87.69
2022-11-21T05:30:32.331Z,87.46
2022-11-21T05:33:01.132Z,87.58
2022-11-21T05:35:28.580Z,87.32
2022-11-21T05:37:59.374Z,86.50
2022-11-21T05:40:27.147Z,86.33
2022-11-21T05:43:12.433Z,86.15
2022-11-21T05:45:39.878Z,86.44
2022-11-21T05:48:08.794Z,86.98
2022-11-21T05:50:36.767Z,86.57
2022-11-21T05:53:05.224Z,86.57
2022-11-21T05:55:34.511Z,86.35
2022-11-21T05:58:01.988Z,86.21
2022-11-21T06:00:29.890Z,86.43
2022-11-21T06:03:15.201Z,85.95
2022-11-21T06:05:44.031Z,85.96
2022-11-21T06:08:11.478Z,86.18
2022-11-21T06:10:38.924Z,85.74
2022-11-21T06:13:21.798Z,86.02
2022-11-21T06:15:50.957Z,86.04
2022-11-21T06:18:18.414Z,85.47
2022-11-21T06:20:47.458Z,85.93
2022-11-21T06:23:15.342Z,86.22
2022-11-21T06:25:43.394Z,86.50
2022-11-21T06:28:11.007Z,86.48
2022-11-21T06:30:38.894Z,86.61
2022-11-21T06:33:07.254Z,87.12
2022-11-21T06:35:39.366Z,86.68
2022-11-21T06:38:08.752Z,86.32
2022-11-21T06:40:36.218Z,86.14
2022-11-21T06:43:03.646Z,85.84
2022-11-21T06:45:31.100Z,86.21
2022-11-21T06:47:58.513Z,86.91
2022-11-21T06:50:25.963Z,87.42
2022-11-21T06:52:53.406Z,87.66
2022-11-21T06:55:23.345Z,87.34
2022-11-21T06:57:50.806Z,87.73
2022-11-21T07:00:19.243Z,87.46
2022-11-21T07:02:46.686Z,87.56
2022-11-21T07:05:14.263Z,86.76
2022-11-21T07:07:41.763Z,86.42
2022-11-21T07:10:10.198Z,86.67
2022-11-21T07:12:56.647Z,86.99
2022-11-21T07:15:24.115Z,87.20
2022-11-21T07:17:51.568Z,87.21
2022-11-21T07:20:19.243Z,86.87
2022-11-21T07:22:46.692Z,86.90
2022-11-21T07:25:14.167Z,86.75
2022-11-21T07:27:42.956Z,86.87
2022-11-21T07:30:11.600Z,87.36
2022-11-21T07:32:39.083Z,87.24
2022-11-21T07:35:07.615Z,86.86
2022-11-21T07:37:38.898Z,86.67
2022-11-21T07:40:07.864Z,86.72
2022-11-21T07:42:35.392Z,86.52
2022-11-21T07:45:04.967Z,87.57
2022-11-21T07:47:32.436Z,87.37
2022-11-21T07:49:59.895Z,87.23
2022-11-21T07:52:30.046Z,87.39
2022-11-21T07:54:57.614Z,87.30
2022-11-21T07:57:25.181Z,87.63
2022-11-21T07:59:52.678Z,87.32
2022-11-21T08:02:22.679Z,87.42
2022-11-21T08:04:50.129Z,87.69
2022-11-21T08:07:19.118Z,87.03
2022-11-21T08:09:46.788Z,87.18
2022-11-21T08:12:14.636Z,87.39
2022-11-21T08:14:42.194Z,87.37
2022-11-21T08:17:09.729Z,87.55
2022-11-21T08:19:38.506Z,88.08
2022-11-21T08:22:05.964Z,87.87
2022-11-21T08:24:33.409Z,88.57
2022-11-21T08:27:03.502Z,87.90
2022-11-21T08:29:30.934Z,87.18
2022-11-21T08:31:58.390Z,87.28
2022-11-21T08:34:25.839Z,87.23
2022-11-21T08:36:54.642Z,86.94
2022-11-21T08:39:22.116Z,87.73
2022-11-21T08:42:04.590Z,87.91
2022-11-21T08:44:32.414Z,87.65
2022-11-21T08:47:00.118Z,88.49
2022-11-21T08:49:27.970Z,88.98
2022-11-21T08:51:56.771Z,89.03
2022-11-21T08:54:25.700Z,88.62
2022-11-21T08:56:54.286Z,88.40
2022-11-21T08:59:21.758Z,87.86
2022-11-21T09:01:49.323Z,87.65
2022-11-21T09:04:16.874Z,89.27
2022-11-21T09:06:44.327Z,89.55
2022-11-21T09:09:13.381Z,89.17
2022-11-21T09:11:41.195Z,89.94
2022-11-21T09:14:26.894Z,89.37
2022-11-21T09:17:12.080Z,89.58
2022-11-21T09:19:39.578Z,89.98
2022-11-21T09:22:07.031Z,90.97
2022-11-21T09:24:35.813Z,90.46
2022-11-21T09:27:03.243Z,90.14
2022-11-21T09:29:30.701Z,90.39
2022-11-21T09:31:58.151Z,90.37
2022-11-21T09:34:25.982Z,90.49
2022-11-21T09:36:53.630Z,90.60
2022-11-21T09:39:21.937Z,91.05
2022-11-21T09:42:00.038Z,90.04
2022-11-21T09:44:45.582Z,90.89
2022-11-21T09:47:21.631Z,90.51
2022-11-21T09:49:52.412Z,90.53
2022-11-21T09:52:22.687Z,90.05
2022-11-21T09:54:51.987Z,90.18
2022-11-21T09:57:24.142Z,89.38
2022-11-21T09:59:52.396Z,89.73
2022-11-21T10:02:22.123Z,90.59
2022-11-21T10:04:50.148Z,90.40
2022-11-21T10:07:22.649Z,90.60
2022-11-21T10:10:19.088Z,91.04
2022-11-21T10:12:57.592Z,91.47
2022-11-21T10:15:32.963Z,91.16
2022-11-21T10:18:18.676Z,91.40
2022-11-21T10:20:55.852Z,91.59
2022-11-21T10:23:54.330Z,91.93
2022-11-21T10:26:23.810Z,92.09
2022-11-21T10:28:57.928Z,92.01
2022-11-21T10:31:26.004Z,91.93
2022-11-21T10:33:54.247Z,93.11
2022-11-21T10:36:27.862Z,93.43
2022-11-21T10:39:00.042Z,93.53
2022-11-21T10:41:38.584Z,93.25
2022-11-21T10:44:31.705Z,93.39
2022-11-21T10:46:59.760Z,93.57
2022-11-21T10:49:29.014Z,93.88
2022-11-21T10:52:01.971Z,93.61
2022-11-21T10:54:36.373Z,93.93
2022-11-21T10:57:08.775Z,94.09
2022-11-21T10:59:37.670Z,93.97
2022-11-21T11:02:23.898Z,93.63
2022-11-21T11:05:29.374Z,94.08
2022-11-21T11:08:03.221Z,93.58
2022-11-21T11:10:31.561Z,93.63
2022-11-21T11:13:45.121Z,93.38
2022-11-21T11:16:06.225Z,92.62
2022-11-21T11:18:35.098Z,92.56
2022-11-21T11:21:18.046Z,92.42
2022-11-21T11:23:47.796Z,92.46
2022-11-21T11:26:27.487Z,92.49
2022-11-21T11:28:55.971Z,92.20
2022-11-21T11:31:23.482Z,92.31
2022-11-21T11:33:53.022Z,92.74
2022-11-21T11:36:30.826Z,92.09
2022-11-21T11:39:00.537Z,91.95
2022-11-21T11:41:58.204Z,92.09
2022-11-21T11:44:47.108Z,91.62
2022-11-21T11:47:32.952Z,92.70
2022-11-21T11:50:11.992Z,92.56
2022-11-21T11:52:53.751Z,92.78
2022-11-21T11:55:27.326Z,92.94
2022-11-21T11:57:56.370Z,92.34
2022-11-21T12:00:28.826Z,92.23
2022-11-21T12:03:01.275Z,92.02
2022-11-21T12:05:29.843Z,91.85
2022-11-21T12:08:40.757Z,91.11
2022-11-21T12:11:14.903Z,92.14
2022-11-21T12:13:43.055Z,90.84
2022-11-21T12:16:14.391Z,90.77
2022-11-21T12:18:49.629Z,91.17
2022-11-21T12:21:18.517Z,90.62
2022-11-21T12:23:48.412Z,90.63
2022-11-21T12:26:40.343Z,90.48
2022-11-21T12:29:17.035Z,90.04
2022-11-21T12:31:56.688Z,90.82
2022-11-21T12:34:34.044Z,89.75
2022-11-21T12:37:07.151Z,89.87
2022-11-21T12:39:57.222Z,90.07
2022-11-21T12:42:47.193Z,88.50
2022-11-21T12:45:31.514Z,88.43
2022-11-21T12:48:39.534Z,88.87
2022-11-21T12:52:12.786Z,88.44
2022-11-21T12:54:54.119Z,88.40
2022-11-21T12:57:22.408Z,88.40
2022-11-21T12:59:58.602Z,87.77
2022-11-21T13:02:31.358Z,87.74
2022-11-21T13:04:59.478Z,88.56
2022-11-21T13:07:29.618Z,88.13
2022-11-21T13:09:58.563Z,88.24
2022-11-21T13:12:33.671Z,86.62
2022-11-21T13:15:11.591Z,87.25
2022-11-21T13:17:44.646Z,87.43
2022-11-21T13:20:20.584Z,86.78
2022-11-21T13:22:52.916Z,87.10
2022-11-21T13:25:48.070Z,86.82
2022-11-21T13:28:30.631Z,86.92
2022-11-21T13:31:02.752Z,86.90
2022-11-21T13:33:48.241Z,86.70
2022-11-21T13:36:41.772Z,86.17
2022-11-21T13:39:28.832Z,86.30
2022-11-21T13:42:24.440Z,85.85
2022-11-21T13:44:52.100Z,85.55
2022-11-21T13:47:47.920Z,85.29
2022-11-21T13:50:24.783Z,85.30
2022-11-21T13:53:01.275Z,85.06
2022-11-21T13:55:50.130Z,84.91
2022-11-21T13:58:28.061Z,84.86
2022-11-21T14:01:07.145Z,85.06
2022-11-21T14:03:52.506Z,85.07
2022-11-21T14:06:34.012Z,85.05
2022-11-21T14:09:23.419Z,84.96
2022-11-21T14:11:52.673Z,85.33
2022-11-21T14:14:29.895Z,84.97
2022-11-21T14:17:08.376Z,85.10
2022-11-21T14:19:37.353Z,85.16
2022-11-21T14:22:04.801Z,85.35
2022-11-21T14:24:32.850Z,85.46
2022-11-21T14:27:00.599Z,85.97
2022-11-21T14:29:29.749Z,85.83
2022-11-21T14:31:57.540Z,85.60
2022-11-21T14:34:26.748Z,86.53
2022-11-21T14:36:58.935Z,86.70
2022-11-21T14:39:44.870Z,87.22
2022-11-21T14:42:14.511Z,87.24
2022-11-21T14:44:42.098Z,87.14
2022-11-21T14:47:19.771Z,87.42
2022-11-21T14:49:53.786Z,86.97
2022-11-21T14:52:26.138Z,87.21
2022-11-21T14:57:44.415Z,86.76
2022-11-21T15:00:36.360Z,86.23
2022-11-21T15:03:03.646Z,85.76
2022-11-21T15:06:00.205Z,86.28
2022-11-21T15:08:53.797Z,85.45
2022-11-21T15:11:11.902Z,85.71
2022-11-21T15:14:06.555Z,85.36
2022-11-21T15:16:27.411Z,84.58
2022-11-21T15:18:54.966Z,84.55
2022-11-21T15:21:22.411Z,84.63
2022-11-21T15:23:51.488Z,85.45
2022-11-21T15:26:29.138Z,85.58
2022-11-21T15:28:57.403Z,86.08
2022-11-21T15:31:25.066Z,86.25
2022-11-21T15:34:19.678Z,86.42
2022-11-21T15:36:44.923Z,86.92
2022-11-21T15:39:18.442Z,87.23
2022-11-21T15:41:46.149Z,87.26
2022-11-21T15:44:23.831Z,88.01
2022-11-21T15:46:54.088Z,88.18
2022-11-21T15:49:36.906Z,88.05
2022-11-21T15:52:12.666Z,88.26
2022-11-21T15:54:41.471Z,87.94
2022-11-21T15:57:09.464Z,88.23
2022-11-21T15:59:36.891Z,88.48
2022-11-21T16:02:04.391Z,88.47
2022-11-21T16:04:32.854Z,88.61
2022-11-21T16:07:00.429Z,88.51
2022-11-21T16:09:29.565Z,87.86
2022-11-21T16:11:58.591Z,87.54
2022-11-21T16:14:26.038Z,88.46
2022-11-21T16:16:53.458Z,88.78
2022-11-21T16:19:20.903Z,90.46
2022-11-21T16:21:48.327Z,90.90
2022-11-21T16:24:15.787Z,89.95
2022-11-21T16:26:43.242Z,91.20
2022-11-21T16:29:12.203Z,91.26
2022-11-21T16:31:39.709Z,91.69
2022-11-21T16:34:07.176Z,92.20
2022-11-21T16:36:34.664Z,91.91
2022-11-21T16:39:08.943Z,91.68
2022-11-21T16:41:40.867Z,92.03
2022-11-21T16:44:14.211Z,91.83
2022-11-21T16:46:43.069Z,92.30
2022-11-21T16:49:10.834Z,93.07
2022-11-21T16:51:38.777Z,93.47
2022-11-21T16:54:09.239Z,93.77
2022-11-21T16:56:37.358Z,94.37
2022-11-21T16:59:04.859Z,93.79
2022-11-21T17:01:33.733Z,94.11
2022-11-21T17:04:01.252Z,94.78
2022-11-21T17:06:31.132Z,95.33
2022-11-21T17:09:00.116Z,96.13
2022-11-21T17:11:30.474Z,96.27
2022-11-21T17:14:00.626Z,96.51
2022-11-21T17:16:28.404Z,97.19
2022-11-21T17:18:58.539Z,96.60
2022-11-21T17:21:26.834Z,96.26
2022-11-21T17:23:54.692Z,96.05
2022-11-21T17:26:23.540Z,95.54
2022-11-21T17:28:54.798Z,96.31
2022-11-21T17:31:22.633Z,96.49
2022-11-21T17:33:51.647Z,96.39
2022-11-21T17:36:22.537Z,96.90
2022-11-21T17:38:50.587Z,96.50
2022-11-21T17:41:19.415Z,97.17
2022-11-21T17:43:48.124Z,96.90
2022-11-21T17:46:17.732Z,96.71
2022-11-21T17:48:51.471Z,96.33
2022-11-21T17:51:25.285Z,96.37
2022-11-21T17:53:53.362Z,96.39
2022-11-21T17:56:22.159Z,97.15
2022-11-21T17:58:49.819Z,97.06
2022-11-21T18:01:20.136Z,96.94
2022-11-21T18:03:48.717Z,96.72
2022-11-21T18:06:17.719Z,96.49
2022-11-21T18:08:48.476Z,95.51
2022-11-21T18:11:18.986Z,95.58
2022-11-21T18:13:46.577Z,94.89
2022-11-21T18:16:16.634Z,94.29
2022-11-21T18:18:44.109Z,93.31
2022-11-21T18:21:13.043Z,92.87
2022-11-21T18:23:40.947Z,93.03
2022-11-21T18:26:13.385Z,92.11
2022-11-21T18:28:41.594Z,91.55
2022-11-21T18:31:10.522Z,91.21
2022-11-21T18:33:38.710Z,90.46
2022-11-21T18:36:08.007Z,90.99
2022-11-21T18:38:58.348Z,90.56
2022-11-21T18:41:27.755Z,89.69
2022-11-21T18:43:56.297Z,89.52
2022-11-21T18:46:24.919Z,89.21
2022-11-21T18:49:04.563Z,89.91
2022-11-21T18:51:33.542Z,89.13
2022-11-21T18:54:03.897Z,89.22
2022-11-21T18:56:32.722Z,89.70
2022-11-21T18:59:00.270Z,90.08
2022-11-21T19:01:29.420Z,89.86
2022-11-21T19:03:57.391Z,90.08
2022-11-21T19:06:26.453Z,89.98
2022-11-21T19:08:55.359Z,89.83
2022-11-21T19:11:24.800Z,91.18
2022-11-21T19:13:54.712Z,91.30
2022-11-21T19:16:24.253Z,90.94
2022-11-21T19:19:18.561Z,91.01
2022-11-21T19:21:40.310Z,90.38
2022-11-21T19:24:08.176Z,90.20
2022-11-21T19:26:35.734Z,90.13
2022-11-21T19:29:04.540Z,89.94
2022-11-21T19:31:32.562Z,90.47
2022-11-21T19:34:00.035Z,91.11
2022-11-21T19:36:27.482Z,91.05
2022-11-21T19:38:54.918Z,91.21
2022-11-21T19:41:25.708Z,90.88
2022-11-21T19:43:54.293Z,91.93
2022-11-21T19:46:24.254Z,91.52
2022-11-21T19:48:53.240Z,91.79
2022-11-21T19:51:21.666Z,91.89
2022-11-21T19:53:49.824Z,91.77
2022-11-21T19:56:18.545Z,91.96
2022-11-21T19:58:46.300Z,91.96
2022-11-21T20:01:15.284Z,92.26
2022-11-21T20:03:45.382Z,92.59
2022-11-21T20:06:16.768Z,92.82
2022-11-21T20:08:44.687Z,93.53
2022-11-21T20:11:15.359Z,93.35
2022-11-21T20:13:44.598Z,93.57
2022-11-21T20:16:18.843Z,93.10
2022-11-21T20:18:47.847Z,93.58
2022-11-21T20:21:15.674Z,93.67
2022-11-21T20:23:43.452Z,93.64
2022-11-21T20:26:11.850Z,93.96
2022-11-21T20:28:39.696Z,93.57
2022-11-21T20:31:08.036Z,93.39
2022-11-21T20:33:36.560Z,93.41
2022-11-21T20:36:07.188Z,93.92
2022-11-21T20:38:34.709Z,93.89
2022-11-21T20:41:02.380Z,93.73
2022-11-21T20:44:02.781Z,94.01
2022-11-21T20:46:20.631Z,94.57
2022-11-21T20:48:48.762Z,94.74
2022-11-21T20:52:55.647Z,94.77
2022-11-21T20:54:05.931Z,94.19
2022-11-21T20:56:35.014Z,94.43
2022-11-21T20:59:02.811Z,95.06
2022-11-21T21:01:31.104Z,94.80
2022-11-21T21:03:58.602Z,94.69
2022-11-21T21:06:27.411Z,95.15
2022-11-21T21:08:54.897Z,94.76
2022-11-21T21:11:50.918Z,94.23
2022-11-21T21:14:11.299Z,94.21
2022-11-21T21:16:38.822Z,94.17
2022-11-21T21:19:06.251Z,93.75
2022-11-21T21:21:35.102Z,93.50
2022-11-21T21:24:04.486Z,94.45
2022-11-21T21:26:40.237Z,94.40
2022-11-21T21:29:09.198Z,95.04
2022-11-21T21:31:36.678Z,95.87
2022-11-21T21:34:04.144Z,95.62
2022-11-21T21:36:32.350Z,96.47
2022-11-21T21:39:01.451Z,96.77
2022-11-21T21:41:30.603Z,96.31
2022-11-21T21:43:58.597Z,96.95
2022-11-21T21:46:28.038Z,96.50
2022-11-21T21:48:57.048Z,96.76
2022-11-21T21:51:25.999Z,96.91
2022-11-21T21:53:54.517Z,97.28
2022-11-21T21:56:24.646Z,97.91
2022-11-21T21:58:52.604Z,98.18
2022-11-21T22:01:21.557Z,97.97
2022-11-21T22:03:49.553Z,97.72
2022-11-21T22:06:18.433Z,97.72
2022-11-21T22:08:47.284Z,97.61
2022-11-21T22:11:16.677Z,97.78
2022-11-21T22:13:47.745Z,97.60
2022-11-21T22:16:15.540Z,97.80
2022-11-21T22:18:43.175Z,98.30
2022-11-21T22:21:14.276Z,97.98
2022-11-21T22:23:56.404Z,97.74
2022-11-21T22:26:29.617Z,97.60
2022-11-21T22:29:01.387Z,97.61
2022-11-21T22:31:31.214Z,97.39
2022-11-21T22:34:01.782Z,98.59
2022-11-21T22:36:29.261Z,98.16
2022-11-21T22:38:57.267Z,98.47
2022-11-21T22:41:26.442Z,98.86
2022-11-21T22:43:55.609Z,99.09
2022-11-21T22:46:25.651Z,98.95
2022-11-21T22:48:53.121Z,99.12
2022-11-21T22:51:22.040Z,99.04
2022-11-21T22:53:50.303Z,98.99
2022-11-21T22:56:18.955Z,98.58
2022-11-21T22:58:46.986Z,98.74
2022-11-21T23:01:15.892Z,98.16
2022-11-21T23:03:45.418Z,98.21
2022-11-21T23:06:14.172Z,98.43
2022-11-21T23:08:42.499Z,98.45
2022-11-21T23:11:11.882Z,98.32
2022-11-21T23:13:40.736Z,97.86
2022-11-21T23:16:08.636Z,98.09
2022-11-21T23:18:37.244Z,98.02
2022-11-21T23:21:06.470Z,98.33
2022-11-21T23:23:34.242Z,98.60
2022-11-21T23:26:01.938Z,99.24
2022-11-21T23:28:29.472Z,98.46
2022-11-21T23:30:56.963Z,98.40
2022-11-21T23:33:24.623Z,98.54
2022-11-21T23:35:52.062Z,98.41
2022-11-21T23:38:21.736Z,98.73
2022-11-21T23:40:49.775Z,98.87
2022-11-21T23:43:18.178Z,98.75
2022-11-21T23:45:46.190Z,98.55
2022-11-21T23:48:13.656Z,99.03
2022-11-21T23:50:41.112Z,99.55
2022-11-21T23:53:09.454Z,99.12
2022-11-21T23:55:38.233Z,99.17
2022-11-21T23:58:05.726Z,99.58
